createdAt,value
2017-01-28T00:00:30.575Z,3.4
2017-01-28T00:01:11.063Z,3.33
2017-01-28T00:01:51.627Z,3.47
2017-01-28T00:02:32.108Z,3.43
2017-01-28T00:03:12.622Z,3.52
2017-01-28T00:03:53.067Z,3.54
2017-01-28T00:04:33.563Z,3.28
2017-01-28T00:05:14.063Z,3.36
2017-01-28T00:05:54.578Z,3.5
2017-01-28T00:06:35.091Z,3.45
2017-01-28T00:07:15.632Z,3.5
2017-01-28T00:07:56.120Z,3.65
2017-01-28T00:08:36.624Z,3.68
2017-01-28T00:09:17.082Z,3.5
2017-01-28T00:09:57.595Z,3.51
2017-01-28T00:10:38.082Z,3.6
2017-01-28T00:11:18.576Z,3.57
2017-01-28T00:11:59.068Z,3.52
2017-01-28T00:12:39.571Z,3.43
2017-01-28T00:13:20.058Z,3.55
2017-01-28T00:14:00.567Z,3.58
2017-01-28T00:14:41.399Z,3.51
2017-01-28T00:15:21.924Z,3.51
2017-01-28T00:16:02.441Z,3.55
2017-01-28T00:16:42.959Z,3.35
2017-01-28T00:17:23.469Z,3.55
2017-01-28T00:18:03.992Z,3.55
2017-01-28T00:18:44.451Z,3.57
2017-01-28T00:19:24.962Z,3.6
2017-01-28T00:20:05.470Z,3.54
2017-01-28T00:20:46.066Z,3.43
2017-01-28T00:21:26.555Z,3.5
2017-01-28T00:22:07.001Z,3.36
2017-01-28T00:22:47.502Z,3.33
2017-01-28T00:23:27.971Z,3.36
2017-01-28T00:24:08.450Z,3.35
2017-01-28T00:24:48.934Z,3.17
2017-01-28T00:25:29.431Z,3.23
2017-01-28T00:26:09.953Z,3.29
2017-01-28T00:26:50.465Z,3.39
2017-01-28T00:27:30.951Z,3.35
2017-01-28T00:28:11.415Z,3.31
2017-01-28T00:28:51.915Z,3.28
2017-01-28T00:29:32.358Z,3.5
2017-01-28T00:30:12.885Z,3.65
2017-01-28T00:30:53.358Z,3.47
2017-01-28T00:31:33.917Z,3.43
2017-01-28T00:32:14.391Z,3.43
2017-01-28T00:32:54.877Z,3.29
2017-01-28T00:33:35.391Z,3.36
2017-01-28T00:34:15.867Z,3.39
2017-01-28T00:34:56.400Z,3.45
2017-01-28T00:35:36.831Z,3.52
2017-01-28T00:36:17.351Z,3.48
2017-01-28T00:36:57.821Z,3.48
2017-01-28T00:37:38.272Z,3.36
2017-01-28T00:38:18.764Z,3.32
2017-01-28T00:38:59.248Z,3.23
2017-01-28T00:39:39.748Z,3.23
2017-01-28T00:40:20.308Z,3.24
2017-01-28T00:41:00.785Z,3.23
2017-01-28T00:41:41.293Z,3.26
2017-01-28T00:42:21.852Z,3.18
2017-01-28T00:43:02.324Z,3.28
2017-01-28T00:43:42.841Z,3.18
2017-01-28T00:44:23.358Z,3.18
2017-01-28T00:45:03.892Z,3.21
2017-01-28T00:45:44.418Z,3.21
2017-01-28T00:46:24.886Z,3.2
2017-01-28T00:47:05.399Z,3.2
2017-01-28T00:47:45.893Z,3.24
2017-01-28T00:48:26.394Z,3.18
2017-01-28T00:49:06.872Z,3.2
2017-01-28T00:49:47.393Z,3.2
2017-01-28T00:50:27.906Z,3.29
2017-01-28T00:51:08.426Z,3.08
2017-01-28T00:51:49.001Z,3.02
2017-01-28T00:52:29.441Z,3.08
2017-01-28T00:53:09.967Z,3.05
2017-01-28T00:53:50.461Z,2.9
2017-01-28T00:54:30.986Z,3.02
2017-01-28T00:55:11.515Z,3.05
2017-01-28T00:55:51.966Z,2.97
2017-01-28T00:56:32.487Z,3
2017-01-28T00:57:12.987Z,2.92
2017-01-28T00:57:53.484Z,3
2017-01-28T00:58:33.966Z,2.97
2017-01-28T00:59:14.469Z,2.99
2017-01-28T00:59:54.991Z,2.87
2017-01-28T01:00:35.505Z,2.87
2017-01-28T01:01:16.027Z,2.75
2017-01-28T01:01:56.531Z,2.72
2017-01-28T01:02:37.050Z,2.69
2017-01-28T01:03:17.551Z,2.84
2017-01-28T01:03:58.070Z,2.74
2017-01-28T01:04:38.589Z,2.81
2017-01-28T01:05:19.074Z,2.81
2017-01-28T01:05:59.558Z,2.85
2017-01-28T01:06:40.067Z,2.9
2017-01-28T01:07:20.568Z,2.96
2017-01-28T01:08:01.091Z,3.1
2017-01-28T01:08:41.612Z,3
2017-01-28T01:09:22.105Z,3.03
2017-01-28T01:10:02.615Z,2.85
2017-01-28T01:10:43.115Z,2.85
2017-01-28T01:11:23.626Z,2.92
2017-01-28T01:12:04.129Z,2.95
2017-01-28T01:12:44.649Z,3.02
2017-01-28T01:13:25.153Z,3.03
2017-01-28T01:14:05.650Z,3.06
2017-01-28T01:14:46.171Z,3.08
2017-01-28T01:15:26.657Z,2.97
2017-01-28T01:16:07.184Z,2.92
2017-01-28T01:16:47.723Z,2.9
2017-01-28T01:17:28.211Z,2.97
2017-01-28T01:18:08.743Z,2.92
2017-01-28T01:18:49.235Z,2.69
2017-01-28T01:19:29.750Z,2.75
2017-01-28T01:20:10.275Z,2.84
2017-01-28T01:20:50.799Z,2.97
2017-01-28T01:21:31.291Z,2.93
2017-01-28T01:22:11.815Z,2.96
2017-01-28T01:22:52.348Z,3.03
2017-01-28T01:23:32.844Z,2.92
2017-01-28T01:24:13.365Z,2.92
2017-01-28T01:24:53.855Z,2.87
2017-01-28T01:25:34.350Z,2.77
2017-01-28T01:26:14.862Z,2.75
2017-01-28T01:26:55.376Z,2.77
2017-01-28T01:27:35.873Z,2.72
2017-01-28T01:28:16.378Z,2.72
2017-01-28T01:28:56.887Z,2.67
2017-01-28T01:29:37.387Z,2.66
2017-01-28T01:30:17.889Z,2.66
2017-01-28T01:30:58.399Z,2.67
2017-01-28T01:31:38.916Z,2.67
2017-01-28T01:32:19.429Z,2.77
2017-01-28T01:32:59.945Z,2.79
2017-01-28T01:33:40.456Z,2.84
2017-01-28T01:34:20.967Z,2.72
2017-01-28T01:35:01.482Z,2.67
2017-01-28T01:35:41.994Z,2.75
2017-01-28T01:36:22.476Z,2.72
2017-01-28T01:37:03.009Z,2.87
2017-01-28T01:37:43.493Z,2.74
2017-01-28T01:38:23.992Z,2.87
2017-01-28T01:39:04.495Z,2.74
2017-01-28T01:39:45.012Z,2.71
2017-01-28T01:40:25.516Z,2.67
2017-01-28T01:41:06.019Z,2.63
2017-01-28T01:41:46.540Z,2.57
2017-01-28T01:42:27.020Z,2.72
2017-01-28T01:43:07.525Z,2.63
2017-01-28T01:43:48.041Z,2.63
2017-01-28T01:44:28.551Z,2.59
2017-01-28T01:45:09.027Z,2.66
2017-01-28T01:45:49.509Z,2.67
2017-01-28T01:46:29.999Z,2.71
2017-01-28T01:47:10.489Z,2.6
2017-01-28T01:47:51.013Z,2.75
2017-01-28T01:48:31.497Z,2.63
2017-01-28T01:49:11.999Z,2.69
2017-01-28T01:49:52.498Z,2.71
2017-01-28T01:50:32.989Z,2.72
2017-01-28T01:51:13.590Z,2.63
2017-01-28T01:51:54.091Z,2.67
2017-01-28T01:52:34.603Z,2.61
2017-01-28T01:53:15.125Z,2.63
2017-01-28T01:53:55.632Z,2.71
2017-01-28T01:54:36.169Z,2.66
2017-01-28T01:55:16.694Z,2.61
2017-01-28T01:55:57.211Z,2.66
2017-01-28T01:56:37.733Z,2.64
2017-01-28T01:57:18.251Z,2.74
2017-01-28T01:57:58.766Z,2.66
2017-01-28T01:58:39.280Z,2.54
2017-01-28T01:59:19.790Z,2.6
2017-01-28T02:00:00.296Z,2.67
2017-01-28T02:00:40.818Z,2.61
2017-01-28T02:01:21.331Z,2.66
2017-01-28T02:02:01.862Z,2.74
2017-01-28T02:02:42.400Z,2.74
2017-01-28T02:03:22.912Z,2.54
2017-01-28T02:04:03.412Z,2.66
2017-01-28T02:04:43.940Z,2.56
2017-01-28T02:05:24.433Z,2.46
2017-01-28T02:06:04.914Z,2.61
2017-01-28T02:06:45.409Z,2.57
2017-01-28T02:07:25.938Z,2.53
2017-01-28T02:08:06.479Z,2.56
2017-01-28T02:08:47.001Z,2.61
2017-01-28T02:09:27.516Z,2.74
2017-01-28T02:10:08.033Z,2.61
2017-01-28T02:10:48.554Z,2.46
2017-01-28T02:11:29.075Z,2.57
2017-01-28T02:12:09.589Z,2.61
2017-01-28T02:12:50.100Z,2.6
2017-01-28T02:13:30.633Z,2.64
2017-01-28T02:14:11.113Z,2.63
2017-01-28T02:14:51.639Z,2.64
2017-01-28T02:15:32.134Z,2.64
2017-01-28T02:16:12.643Z,2.61
2017-01-28T02:16:53.151Z,2.69
2017-01-28T02:17:33.730Z,2.72
2017-01-28T02:18:14.236Z,2.72
2017-01-28T02:18:54.682Z,2.72
2017-01-28T02:19:35.171Z,2.71
2017-01-28T02:20:15.689Z,2.66
2017-01-28T02:20:56.143Z,2.67
2017-01-28T02:21:36.656Z,2.78
2017-01-28T02:22:17.139Z,2.69
2017-01-28T02:22:57.663Z,2.74
2017-01-28T02:23:38.110Z,2.64
2017-01-28T02:24:18.611Z,2.66
2017-01-28T02:24:59.110Z,2.67
2017-01-28T02:25:39.583Z,2.52
2017-01-28T02:26:20.116Z,2.57
2017-01-28T02:27:00.622Z,2.56
2017-01-28T02:27:41.048Z,2.59
2017-01-28T02:28:21.559Z,2.74
2017-01-28T02:29:02.109Z,2.72
2017-01-28T02:29:42.574Z,2.59
2017-01-28T02:30:23.033Z,2.48
2017-01-28T02:31:03.551Z,2.46
2017-01-28T02:31:44.010Z,2.56
2017-01-28T02:32:24.537Z,2.56
2017-01-28T02:33:04.994Z,2.46
2017-01-28T02:33:45.489Z,2.53
2017-01-28T02:34:25.963Z,2.59
2017-01-28T02:35:06.441Z,2.46
2017-01-28T02:35:46.929Z,2.46
2017-01-28T02:36:27.464Z,2.53
2017-01-28T02:37:08.156Z,2.59
2017-01-28T02:37:48.696Z,2.67
2017-01-28T02:38:29.131Z,2.61
2017-01-28T02:39:09.598Z,2.74
2017-01-28T02:39:50.142Z,2.59
2017-01-28T02:40:30.573Z,2.48
2017-01-28T02:41:11.107Z,2.43
2017-01-28T02:41:51.637Z,2.34
2017-01-28T02:42:32.097Z,2.38
2017-01-28T02:43:12.575Z,2.45
2017-01-28T02:43:53.049Z,2.42
2017-01-28T02:44:33.603Z,2.43
2017-01-28T02:45:14.098Z,2.45
2017-01-28T02:45:54.546Z,2.49
2017-01-28T02:46:35.016Z,2.49
2017-01-28T02:47:15.566Z,2.43
2017-01-28T02:47:56.059Z,2.54
2017-01-28T02:48:36.534Z,2.43
2017-01-28T02:49:17.011Z,2.41
2017-01-28T02:49:57.524Z,2.43
2017-01-28T02:50:38.011Z,2.46
2017-01-28T02:51:18.498Z,2.36
2017-01-28T02:51:58.965Z,2.31
2017-01-28T02:52:39.503Z,2.3
2017-01-28T02:53:19.928Z,2.45
2017-01-28T02:54:00.440Z,2.48
2017-01-28T02:54:41.053Z,2.39
2017-01-28T02:55:21.558Z,2.48
2017-01-28T02:56:02.032Z,2.41
2017-01-28T02:56:42.493Z,2.57
2017-01-28T02:57:23.023Z,2.36
2017-01-28T02:58:03.496Z,2.27
2017-01-28T02:58:43.995Z,2.35
2017-01-28T02:59:24.488Z,2.28
2017-01-28T03:00:04.940Z,2.28
2017-01-28T03:00:45.452Z,2.3
2017-01-28T03:01:25.926Z,2.31
2017-01-28T03:02:06.512Z,2.2
2017-01-28T03:02:46.985Z,2.03
2017-01-28T03:03:27.464Z,2.07
2017-01-28T03:04:07.987Z,2.07
2017-01-28T03:04:48.486Z,2.12
2017-01-28T03:05:28.939Z,1.91
2017-01-28T03:06:09.392Z,2.05
2017-01-28T03:06:49.896Z,2.2
2017-01-28T03:07:30.393Z,2.38
2017-01-28T03:08:10.925Z,2.24
2017-01-28T03:08:51.381Z,2.31
2017-01-28T03:09:31.869Z,2.21
2017-01-28T03:10:12.312Z,2.34
2017-01-28T03:10:52.866Z,2.34
2017-01-28T03:11:33.276Z,2.3
2017-01-28T03:12:13.750Z,2.27
2017-01-28T03:12:54.249Z,2.09
2017-01-28T03:13:34.726Z,2.12
2017-01-28T03:14:15.201Z,2.14
2017-01-28T03:14:55.686Z,2.18
2017-01-28T03:15:36.182Z,2.06
2017-01-28T03:16:16.689Z,2.06
2017-01-28T03:16:57.130Z,2.02
2017-01-28T03:17:37.645Z,2.03
2017-01-28T03:18:18.142Z,1.86
2017-01-28T03:18:58.686Z,1.88
2017-01-28T03:19:39.138Z,2.12
2017-01-28T03:20:19.643Z,2.03
2017-01-28T03:21:00.112Z,2.28
2017-01-28T03:21:40.646Z,2.21
2017-01-28T03:22:21.117Z,2.34
2017-01-28T03:23:01.629Z,2.3
2017-01-28T03:23:42.134Z,2.38
2017-01-28T03:24:22.653Z,2.17
2017-01-28T03:25:03.192Z,2.18
2017-01-28T03:25:43.663Z,2.05
2017-01-28T03:26:24.180Z,2.17
2017-01-28T03:27:04.670Z,2.03
2017-01-28T03:27:45.183Z,2.18
2017-01-28T03:28:25.683Z,2.25
2017-01-28T03:29:06.200Z,2.24
2017-01-28T03:29:46.701Z,2.28
2017-01-28T03:30:27.221Z,2.27
2017-01-28T03:31:07.719Z,2.24
2017-01-28T03:31:48.212Z,2.17
2017-01-28T03:32:28.740Z,2.1
2017-01-28T03:33:09.211Z,2
2017-01-28T03:33:49.723Z,2.03
2017-01-28T03:34:30.222Z,1.95
2017-01-28T03:35:10.730Z,1.9
2017-01-28T03:35:51.233Z,2.05
2017-01-28T03:36:31.756Z,2.07
2017-01-28T03:37:12.283Z,2.05
2017-01-28T03:37:52.773Z,1.88
2017-01-28T03:38:33.279Z,2.06
2017-01-28T03:39:13.782Z,2.02
2017-01-28T03:39:54.302Z,2.06
2017-01-28T03:40:34.842Z,2.06
2017-01-28T03:41:15.304Z,2.07
2017-01-28T03:41:55.824Z,2.18
2017-01-28T03:42:36.319Z,2.21
2017-01-28T03:43:16.841Z,2.23
2017-01-28T03:43:57.325Z,2.23
2017-01-28T03:44:37.879Z,2.18
2017-01-28T03:45:18.388Z,2.06
2017-01-28T03:45:58.893Z,2.09
2017-01-28T03:46:39.413Z,1.87
2017-01-28T03:47:19.900Z,1.87
2017-01-28T03:48:00.409Z,1.99
2017-01-28T03:48:40.896Z,1.88
2017-01-28T03:49:21.398Z,1.95
2017-01-28T03:50:01.870Z,1.99
2017-01-28T03:50:42.368Z,2
2017-01-28T03:51:22.825Z,2
2017-01-28T03:52:03.371Z,1.87
2017-01-28T03:52:43.866Z,2
2017-01-28T03:53:24.312Z,1.83
2017-01-28T03:54:04.852Z,1.76
2017-01-28T03:54:45.314Z,1.86
2017-01-28T03:55:25.806Z,1.88
2017-01-28T03:56:06.323Z,2
2017-01-28T03:56:46.790Z,1.98
2017-01-28T03:57:27.324Z,2
2017-01-28T03:58:07.758Z,2.06
2017-01-28T03:58:48.280Z,2.07
2017-01-28T03:59:28.791Z,1.95
2017-01-28T04:00:09.297Z,2
2017-01-28T04:00:49.804Z,2.09
2017-01-28T04:01:30.304Z,1.95
2017-01-28T04:02:10.823Z,1.91
2017-01-28T04:02:51.315Z,1.93
2017-01-28T04:03:31.782Z,1.79
2017-01-28T04:04:12.301Z,2
2017-01-28T04:04:52.801Z,1.86
2017-01-28T04:05:33.333Z,1.88
2017-01-28T04:06:13.845Z,1.98
2017-01-28T04:06:54.388Z,1.88
2017-01-28T04:07:34.828Z,1.81
2017-01-28T04:08:15.326Z,1.8
2017-01-28T04:08:55.819Z,1.9
2017-01-28T04:09:36.346Z,1.98
2017-01-28T04:10:16.853Z,2.03
2017-01-28T04:10:57.368Z,1.95
2017-01-28T04:11:37.877Z,1.87
2017-01-28T04:12:18.398Z,1.84
2017-01-28T04:12:58.909Z,1.76
2017-01-28T04:13:39.426Z,1.88
2017-01-28T04:14:19.955Z,1.87
2017-01-28T04:15:00.460Z,1.79
2017-01-28T04:15:40.963Z,1.81
2017-01-28T04:16:21.478Z,1.8
2017-01-28T04:17:01.962Z,1.83
2017-01-28T04:17:42.465Z,1.73
2017-01-28T04:18:22.984Z,1.76
2017-01-28T04:19:03.490Z,1.76
2017-01-28T04:19:44.016Z,1.83
2017-01-28T04:20:24.515Z,1.83
2017-01-28T04:21:05.021Z,1.87
2017-01-28T04:21:45.551Z,2.03
2017-01-28T04:22:26.180Z,1.98
2017-01-28T04:23:06.524Z,1.88
2017-01-28T04:23:47.019Z,1.91
2017-01-28T04:24:27.522Z,1.83
2017-01-28T04:25:08.034Z,1.81
2017-01-28T04:25:48.537Z,1.76
2017-01-28T04:26:29.048Z,1.8
2017-01-28T04:27:09.576Z,1.81
2017-01-28T04:27:50.107Z,1.83
2017-01-28T04:28:30.607Z,1.76
2017-01-28T04:29:11.125Z,1.86
2017-01-28T04:29:51.642Z,2.03
2017-01-28T04:30:32.171Z,2.12
2017-01-28T04:31:12.628Z,2.14
2017-01-28T04:31:53.150Z,1.88
2017-01-28T04:32:33.664Z,1.8
2017-01-28T04:33:14.176Z,1.81
2017-01-28T04:33:54.688Z,1.72
2017-01-28T04:34:35.207Z,1.73
2017-01-28T04:35:15.718Z,1.77
2017-01-28T04:35:56.237Z,1.7
2017-01-28T04:36:36.738Z,1.69
2017-01-28T04:37:17.247Z,1.66
2017-01-28T04:37:57.767Z,1.66
2017-01-28T04:38:38.281Z,1.68
2017-01-28T04:39:18.789Z,1.55
2017-01-28T04:39:59.307Z,1.66
2017-01-28T04:40:39.821Z,1.72
2017-01-28T04:41:20.360Z,1.68
2017-01-28T04:42:00.864Z,1.76
2017-01-28T04:42:41.452Z,1.7
2017-01-28T04:43:21.913Z,1.66
2017-01-28T04:44:02.436Z,1.76
2017-01-28T04:44:42.945Z,1.73
2017-01-28T04:45:23.451Z,1.79
2017-01-28T04:46:03.969Z,1.76
2017-01-28T04:46:44.480Z,1.86
2017-01-28T04:47:25.007Z,1.9
2017-01-28T04:48:05.522Z,1.87
2017-01-28T04:48:46.047Z,1.88
2017-01-28T04:49:26.553Z,1.86
2017-01-28T04:50:07.060Z,1.83
2017-01-28T04:50:47.534Z,1.86
2017-01-28T04:51:28.039Z,1.76
2017-01-28T04:52:08.557Z,1.8
2017-01-28T04:52:49.074Z,1.8
2017-01-28T04:53:29.615Z,1.88
2017-01-28T04:54:10.103Z,1.63
2017-01-28T04:54:50.607Z,1.66
2017-01-28T04:55:31.144Z,1.77
2017-01-28T04:56:11.647Z,1.72
2017-01-28T04:56:52.150Z,1.66
2017-01-28T04:57:32.679Z,1.6
2017-01-28T04:58:13.182Z,1.58
2017-01-28T04:58:53.689Z,1.62
2017-01-28T04:59:34.202Z,1.6
2017-01-28T05:00:14.710Z,1.68
2017-01-28T05:00:55.211Z,1.73
2017-01-28T05:01:35.734Z,1.66
2017-01-28T05:02:16.188Z,1.76
2017-01-28T05:02:56.693Z,1.81
2017-01-28T05:03:37.205Z,1.72
2017-01-28T05:04:17.720Z,1.6
2017-01-28T05:04:58.217Z,1.5
2017-01-28T05:05:38.738Z,1.47
2017-01-28T05:06:19.224Z,1.51
2017-01-28T05:06:59.744Z,1.52
2017-01-28T05:07:40.228Z,1.6
2017-01-28T05:08:20.929Z,1.5
2017-01-28T05:09:01.386Z,1.54
2017-01-28T05:09:41.884Z,1.66
2017-01-28T05:10:22.345Z,1.6
2017-01-28T05:11:02.832Z,1.55
2017-01-28T05:11:43.351Z,1.44
2017-01-28T05:12:23.857Z,1.48
2017-01-28T05:13:04.336Z,1.65
2017-01-28T05:13:44.845Z,1.62
2017-01-28T05:14:25.351Z,1.68
2017-01-28T05:15:05.847Z,1.52
2017-01-28T05:15:46.348Z,1.58
2017-01-28T05:16:26.850Z,1.55
2017-01-28T05:17:07.317Z,1.4
2017-01-28T05:17:47.800Z,1.44
2017-01-28T05:18:28.283Z,1.41
2017-01-28T05:19:08.792Z,1.42
2017-01-28T05:19:49.282Z,1.4
2017-01-28T05:20:29.790Z,1.32
2017-01-28T05:21:10.306Z,1.4
2017-01-28T05:21:50.785Z,1.4
2017-01-28T05:23:48.927Z,1.66
2017-01-28T05:24:29.431Z,1.51
2017-01-28T05:25:09.938Z,1.54
2017-01-28T05:25:50.449Z,1.59
2017-01-28T05:26:30.965Z,1.48
2017-01-28T05:27:11.461Z,1.41
2017-01-28T05:27:51.982Z,1.48
2017-01-28T05:28:32.491Z,1.42
2017-01-28T05:29:12.989Z,1.37
2017-01-28T05:29:53.515Z,1.48
2017-01-28T05:30:33.985Z,1.55
2017-01-28T05:31:14.464Z,1.72
2017-01-28T05:31:54.944Z,1.59
2017-01-28T05:32:35.392Z,1.65
2017-01-28T05:33:15.898Z,1.52
2017-01-28T05:33:56.408Z,1.51
2017-01-28T05:34:36.923Z,1.51
2017-01-28T05:35:17.422Z,1.55
2017-01-28T05:35:57.933Z,1.52
2017-01-28T05:36:38.449Z,1.45
2017-01-28T05:37:18.951Z,1.29
2017-01-28T05:37:59.450Z,1.41
2017-01-28T05:38:39.961Z,1.36
2017-01-28T05:39:20.467Z,1.47
2017-01-28T05:40:00.995Z,1.44
2017-01-28T05:40:41.469Z,1.48
2017-01-28T05:41:21.975Z,1.55
2017-01-28T05:42:02.455Z,1.54
2017-01-28T05:42:42.991Z,1.65
2017-01-28T05:43:23.436Z,1.62
2017-01-28T05:44:03.908Z,1.65
2017-01-28T05:44:44.445Z,1.6
2017-01-28T05:45:24.913Z,1.59
2017-01-28T05:46:05.381Z,1.48
2017-01-28T05:46:45.873Z,1.45
2017-01-28T05:47:26.410Z,1.41
2017-01-28T05:48:06.872Z,1.44
2017-01-28T05:48:47.361Z,1.32
2017-01-28T05:49:27.867Z,1.4
2017-01-28T05:50:08.334Z,1.32
2017-01-28T05:50:48.809Z,1.41
2017-01-28T05:51:29.309Z,1.34
2017-01-28T05:52:09.789Z,1.3
2017-01-28T05:52:50.296Z,1.48
2017-01-28T05:53:30.780Z,1.65
2017-01-28T05:54:11.283Z,1.55
2017-01-28T05:54:51.719Z,1.42
2017-01-28T05:55:32.204Z,1.47
2017-01-28T05:56:12.693Z,1.44
2017-01-28T05:56:53.220Z,1.58
2017-01-28T05:57:33.708Z,1.52
2017-01-28T05:58:14.176Z,1.65
2017-01-28T05:58:54.652Z,1.6
2017-01-28T05:59:35.219Z,1.47
2017-01-28T06:00:15.684Z,1.41
2017-01-28T06:00:56.169Z,1.62
2017-01-28T06:01:36.647Z,1.66
2017-01-28T06:02:17.105Z,1.65
2017-01-28T06:02:57.628Z,1.66
2017-01-28T06:03:38.056Z,1.72
2017-01-28T06:04:18.597Z,1.72
2017-01-28T06:04:59.089Z,1.72
2017-01-28T06:05:39.577Z,1.76
2017-01-28T06:06:20.063Z,1.76
2017-01-28T06:07:00.552Z,1.83
2017-01-28T06:07:41.044Z,1.55
2017-01-28T06:08:21.541Z,1.41
2017-01-28T06:09:02.040Z,1.41
2017-01-28T06:09:42.517Z,1.47
2017-01-28T06:10:23.003Z,1.63
2017-01-28T06:11:03.556Z,1.65
2017-01-28T06:11:44.029Z,1.68
2017-01-28T06:12:24.478Z,1.65
2017-01-28T06:13:04.976Z,1.52
2017-01-28T06:13:45.485Z,1.42
2017-01-28T06:14:25.958Z,1.58
2017-01-28T06:15:06.446Z,1.52
2017-01-28T06:15:46.932Z,1.48
2017-01-28T06:16:27.395Z,1.45
2017-01-28T06:17:07.903Z,1.55
2017-01-28T06:17:48.411Z,1.7
2017-01-28T06:18:28.910Z,1.66
2017-01-28T06:19:09.418Z,1.68
2017-01-28T06:19:49.909Z,1.68
2017-01-28T06:20:30.416Z,1.68
2017-01-28T06:21:10.921Z,1.65
2017-01-28T06:21:51.456Z,1.66
2017-01-28T06:22:31.972Z,1.76
2017-01-28T06:23:12.489Z,1.76
2017-01-28T06:23:52.997Z,1.65
2017-01-28T06:24:33.514Z,1.65
2017-01-28T06:25:14.016Z,1.6
2017-01-28T06:25:54.572Z,1.54
2017-01-28T06:26:35.091Z,1.59
2017-01-28T06:27:15.587Z,1.62
2017-01-28T06:27:56.094Z,1.59
2017-01-28T06:28:36.557Z,1.66
2017-01-28T06:29:17.048Z,1.58
2017-01-28T06:29:57.569Z,1.55
2017-01-28T06:30:38.050Z,1.6
2017-01-28T06:31:18.552Z,1.42
2017-01-28T06:31:59.034Z,1.34
2017-01-28T06:32:39.532Z,1.29
2017-01-28T06:33:19.990Z,1.27
2017-01-28T06:34:00.535Z,1.63
2017-01-28T06:34:41.058Z,1.48
2017-01-28T06:35:21.551Z,1.55
2017-01-28T06:36:02.088Z,1.62
2017-01-28T06:36:42.528Z,1.52
2017-01-28T06:37:23.051Z,1.52
2017-01-28T06:38:03.550Z,1.44
2017-01-28T06:38:44.071Z,1.51
2017-01-28T06:39:24.601Z,1.52
2017-01-28T06:40:05.135Z,1.47
2017-01-28T06:40:45.642Z,1.63
2017-01-28T06:41:26.153Z,1.69
2017-01-28T06:42:06.647Z,1.66
2017-01-28T06:42:47.165Z,1.52
2017-01-28T06:43:27.664Z,1.6
2017-01-28T06:44:08.152Z,1.41
2017-01-28T06:44:48.680Z,1.36
2017-01-28T06:45:29.151Z,1.42
2017-01-28T06:46:09.634Z,1.6
2017-01-28T06:46:50.158Z,1.54
2017-01-28T06:47:30.647Z,1.48
2017-01-28T06:48:11.146Z,1.33
2017-01-28T06:48:51.648Z,1.42
2017-01-28T06:49:32.103Z,1.42
2017-01-28T06:50:12.583Z,1.6
2017-01-28T06:50:53.081Z,1.52
2017-01-28T06:51:33.578Z,1.45
2017-01-28T06:52:14.094Z,1.37
2017-01-28T06:52:54.611Z,1.42
2017-01-28T06:53:35.128Z,1.45
2017-01-28T06:54:15.742Z,1.3
2017-01-28T06:54:56.117Z,1.36
2017-01-28T06:55:36.668Z,1.65
2017-01-28T06:56:17.133Z,1.6
2017-01-28T06:56:57.703Z,1.45
2017-01-28T06:57:38.184Z,1.5
2017-01-28T06:58:18.669Z,1.47
2017-01-28T06:58:59.157Z,1.54
2017-01-28T06:59:39.668Z,1.34
2017-01-28T07:00:20.132Z,1.41
2017-01-28T07:01:00.723Z,1.36
2017-01-28T07:01:41.225Z,1.32
2017-01-28T07:02:21.737Z,1.36
2017-01-28T07:03:02.224Z,1.34
2017-01-28T07:03:42.741Z,1.34
2017-01-28T07:04:23.258Z,1.44
2017-01-28T07:05:03.783Z,1.41
2017-01-28T07:05:44.280Z,1.37
2017-01-28T07:06:24.811Z,1.37
2017-01-28T07:07:05.440Z,1.33
2017-01-28T07:07:46.017Z,1.24
2017-01-28T07:08:26.504Z,1.27
2017-01-28T07:09:07.026Z,1.41
2017-01-28T07:09:47.536Z,1.42
2017-01-28T07:10:28.025Z,1.29
2017-01-28T07:11:08.557Z,1.23
2017-01-28T07:11:49.082Z,1.29
2017-01-28T07:12:29.604Z,1.37
2017-01-28T07:13:10.259Z,1.42
2017-01-28T07:13:51.230Z,1.3
2017-01-28T07:14:31.743Z,1.29
2017-01-28T07:15:12.226Z,1.37
2017-01-28T07:15:52.712Z,1.48
2017-01-28T07:16:33.247Z,1.29
2017-01-28T07:17:13.717Z,1.24
2017-01-28T07:17:54.197Z,1.29
2017-01-28T07:18:34.659Z,1.47
2017-01-28T07:19:15.156Z,1.36
2017-01-28T07:19:55.650Z,1.4
2017-01-28T07:20:36.096Z,1.41
2017-01-28T07:21:16.643Z,1.59
2017-01-28T07:21:57.149Z,1.44
2017-01-28T07:22:37.652Z,1.51
2017-01-28T07:23:18.125Z,1.45
2017-01-28T07:23:58.644Z,1.41
2017-01-28T07:24:39.155Z,1.48
2017-01-28T07:25:19.649Z,1.6
2017-01-28T07:26:00.135Z,1.54
2017-01-28T07:26:40.582Z,1.47
2017-01-28T07:27:21.085Z,1.34
2017-01-28T07:28:01.856Z,1.4
2017-01-28T07:28:42.334Z,1.37
2017-01-28T07:29:22.863Z,1.5
2017-01-28T07:30:03.473Z,1.36
2017-01-28T07:30:43.949Z,1.44
2017-01-28T07:31:24.441Z,1.45
2017-01-28T07:32:04.898Z,1.58
2017-01-28T07:32:45.424Z,1.63
2017-01-28T07:33:25.892Z,1.65
2017-01-28T07:34:06.405Z,1.76
2017-01-28T07:34:46.907Z,1.54
2017-01-28T07:35:27.426Z,1.66
2017-01-28T07:36:07.950Z,1.66
2017-01-28T07:36:48.464Z,1.69
2017-01-28T07:37:29.020Z,1.73
2017-01-28T07:38:09.490Z,1.59
2017-01-28T07:38:49.998Z,1.6
2017-01-28T07:39:30.499Z,1.73
2017-01-28T07:40:11.037Z,1.79
2017-01-28T07:40:51.529Z,1.66
2017-01-28T07:41:32.070Z,1.58
2017-01-28T07:42:12.554Z,1.65
2017-01-28T07:42:53.122Z,1.7
2017-01-28T07:43:33.625Z,1.77
2017-01-28T07:44:14.151Z,1.84
2017-01-28T07:44:54.679Z,1.79
2017-01-28T07:45:35.352Z,1.73
2017-01-28T07:46:16.253Z,1.79
2017-01-28T07:46:56.883Z,1.76
2017-01-28T07:47:37.361Z,1.69
2017-01-28T07:48:17.885Z,1.79
2017-01-28T07:48:58.368Z,1.73
2017-01-28T07:49:38.897Z,1.8
2017-01-28T07:50:19.408Z,1.73
2017-01-28T07:50:59.911Z,1.77
2017-01-28T07:51:40.440Z,1.79
2017-01-28T07:52:20.947Z,1.76
2017-01-28T07:53:01.465Z,1.72
2017-01-28T07:53:41.971Z,1.8
2017-01-28T07:54:22.497Z,1.88
2017-01-28T07:55:03.043Z,1.9
2017-01-28T07:55:43.562Z,2
2017-01-28T07:56:24.034Z,2.12
2017-01-28T07:57:04.519Z,2.03
2017-01-28T07:57:45.033Z,1.88
2017-01-28T07:58:25.470Z,1.79
2017-01-28T07:59:05.974Z,1.93
2017-01-28T07:59:46.427Z,1.84
2017-01-28T08:00:27.714Z,1.83
2017-01-28T08:01:08.260Z,1.86
2017-01-28T08:01:48.743Z,1.99
2017-01-28T08:02:29.271Z,2
2017-01-28T08:03:09.774Z,2.09
2017-01-28T08:03:50.470Z,1.91
2017-01-28T08:04:30.947Z,2.02
2017-01-28T08:05:11.431Z,1.86
2017-01-28T08:05:51.954Z,2.02
2017-01-28T08:06:32.444Z,1.95
2017-01-28T08:07:12.901Z,1.98
2017-01-28T08:07:53.425Z,2.09
2017-01-28T08:08:33.924Z,1.98
2017-01-28T08:09:14.403Z,2
2017-01-28T08:09:54.891Z,2.05
2017-01-28T08:10:35.397Z,2.03
2017-01-28T08:11:15.874Z,2.09
2017-01-28T08:11:56.327Z,2.1
2017-01-28T08:12:36.826Z,2.21
2017-01-28T08:13:17.304Z,2.27
2017-01-28T08:13:57.824Z,2.18
2017-01-28T08:14:38.370Z,2.21
2017-01-28T08:15:19.015Z,2.3
2017-01-28T08:15:59.511Z,2.25
2017-01-28T08:16:39.996Z,2.2
2017-01-28T08:17:20.468Z,2.3
2017-01-28T08:18:00.950Z,2.31
2017-01-28T08:18:41.468Z,2.35
2017-01-28T08:19:21.942Z,2.27
2017-01-28T08:20:02.445Z,2.24
2017-01-28T08:20:42.949Z,2.48
2017-01-28T08:21:23.474Z,2.56
2017-01-28T08:22:04.042Z,2.59
2017-01-28T08:22:44.489Z,2.54
2017-01-28T08:23:24.978Z,2.53
2017-01-28T08:24:05.501Z,2.63
2017-01-28T08:24:46.004Z,2.49
2017-01-28T08:25:26.478Z,2.52
2017-01-28T08:26:07.010Z,2.49
2017-01-28T08:26:47.449Z,2.59
2017-01-28T08:27:27.939Z,2.63
2017-01-28T08:28:08.462Z,2.49
2017-01-28T08:28:48.987Z,2.66
2017-01-28T08:29:29.425Z,2.71
2017-01-28T08:30:09.876Z,2.67
2017-01-28T08:30:50.393Z,2.59
2017-01-28T08:31:30.904Z,2.67
2017-01-28T08:32:11.359Z,2.72
2017-01-28T08:32:51.846Z,2.59
2017-01-28T08:33:32.344Z,2.69
2017-01-28T08:34:12.834Z,2.71
2017-01-28T08:34:53.329Z,2.63
2017-01-28T08:35:33.880Z,2.85
2017-01-28T08:36:14.343Z,2.82
2017-01-28T08:36:54.783Z,2.84
2017-01-28T08:37:35.302Z,2.75
2017-01-28T08:38:15.787Z,2.87
2017-01-28T08:38:56.302Z,2.78
2017-01-28T08:39:36.761Z,2.82
2017-01-28T08:40:17.347Z,2.67
2017-01-28T08:40:57.750Z,2.89
2017-01-28T08:41:38.244Z,2.93
2017-01-28T08:42:18.737Z,3.03
2017-01-28T08:42:59.213Z,3.06
2017-01-28T08:43:39.704Z,3
2017-01-28T08:44:20.242Z,3.14
2017-01-28T08:45:00.717Z,3.1
2017-01-28T08:45:41.540Z,3.23
2017-01-28T08:46:22.017Z,3.18
2017-01-28T08:47:02.532Z,3.15
2017-01-28T08:47:43.022Z,3.26
2017-01-28T08:48:23.499Z,3.14
2017-01-28T08:49:04.027Z,3.05
2017-01-28T08:49:44.485Z,3.11
2017-01-28T08:50:24.997Z,3.26
2017-01-28T08:51:05.456Z,3.26
2017-01-28T08:51:45.975Z,3.1
2017-01-28T08:52:26.486Z,3.14
2017-01-28T08:53:07.041Z,3.2
2017-01-28T08:53:47.536Z,3.23
2017-01-28T08:54:28.107Z,3.24
2017-01-28T08:55:08.495Z,3.13
2017-01-28T08:55:48.986Z,3.15
2017-01-28T08:56:29.524Z,3.08
2017-01-28T08:57:09.985Z,3.17
2017-01-28T08:57:50.499Z,3.15
2017-01-28T08:58:31.048Z,3.29
2017-01-28T08:59:11.518Z,3.29
2017-01-28T08:59:51.963Z,3.2
2017-01-28T09:00:32.460Z,3.28
2017-01-28T09:01:12.919Z,3.21
2017-01-28T09:01:53.438Z,3.32
2017-01-28T09:02:33.932Z,3.29
2017-01-28T09:03:14.439Z,3.29